Time;durP1;ratioP1;P1;durP2;ratioP2;P2;SDS_P1;SDS_P2;PMS_P1;PMS_P2;Temp;Humidity;BMP_temperature;BMP_pressure;BME280_temperature;BME280_humidity;BME280_pressure;Samples;Min_cycle;Max_cycle;Signal;HPM_P1;HPM_P2
2023/12/06 00:02:50;;;;;;;8.60;4.35;;;17.70;74.70;;;;;;10548040;27;20051;-50
2023/12/06 00:07:52;;;;;;;9.30;4.55;;;17.70;74.60;;;;;;10547099;28;21224;-53
2023/12/06 00:12:56;;;;;;;7.75;4.30;;;17.70;74.60;;;;;;10543540;28;20763;-56
2023/12/06 00:17:58;;;;;;;6.95;3.85;;;17.70;74.60;;;;;;10538706;28;20116;-54
2023/12/06 00:22:59;;;;;;;7.13;4.17;;;17.70;74.70;;;;;;10541449;28;20943;-56
2023/12/06 00:28:03;;;;;;;11.37;5.10;;;17.60;74.70;;;;;;10545468;28;20515;-53
2023/12/06 00:33:07;;;;;;;7.97;4.55;;;17.60;74.60;;;;;;10553071;27;20052;-54
2023/12/06 00:38:10;;;;;;;9.07;4.20;;;17.60;74.70;;;;;;10552000;27;20184;-56
2023/12/06 00:43:13;;;;;;;6.93;4.05;;;17.60;74.60;;;;;;10551785;28;20055;-53
2023/12/06 00:48:15;;;;;;;6.55;3.97;;;17.60;74.70;;;;;;10549922;27;21344;-54
2023/12/06 00:53:17;;;;;;;7.00;4.10;;;17.60;74.60;;;;;;10549728;28;20044;-56
2023/12/06 00:58:20;;;;;;;7.75;3.90;;;17.60;74.60;;;;;;10549319;28;20048;-54
2023/12/06 01:09:33;;;;;;;6.43;3.80;;;17.50;74.60;;;;;;10403645;22;22616;-54
2023/12/06 01:14:36;;;;;;;4.53;2.95;;;17.50;74.60;;;;;;10337473;28;20081;-57
2023/12/06 01:19:38;;;;;;;6.20;3.60;;;17.50;74.50;;;;;;10341349;28;20129;-53
2023/12/06 01:24:40;;;;;;;6.40;3.80;;;17.50;74.60;;;;;;10337648;28;20466;-50
2023/12/06 01:29:43;;;;;;;5.53;3.50;;;17.50;74.50;;;;;;10344789;28;20057;-52
2023/12/06 01:34:46;;;;;;;5.50;3.15;;;17.50;74.60;;;;;;10340789;28;20053;-53
2023/12/06 01:39:48;;;;;;;;;;;17.40;74.50;;;;;;10340691;28;20046;-51
2023/12/06 01:44:51;;;;;;;5.85;3.00;;;17.40;74.50;;;;;;10337216;28;19929;-50
2023/12/06 01:49:54;;;;;;;7.25;3.30;;;17.40;74.60;;;;;;10340771;28;20057;-53
2023/12/06 01:54:58;;;;;;;6.10;3.53;;;17.40;75.10;;;;;;10338876;28;20072;-54
2023/12/06 02:00:04;;;;;;;4.82;3.10;;;17.40;74.50;;;;;;10342335;28;20127;-50
2023/12/06 02:05:06;;;;;;;7.23;3.37;;;17.40;74.40;;;;;;10340700;28;20058;-51
2023/12/06 02:10:09;;;;;;;5.25;3.13;;;17.40;74.40;;;;;;10339550;28;20454;-51
2023/12/06 02:15:12;;;;;;;5.50;3.05;;;17.40;74.40;;;;;;10335052;28;20050;-55
2023/12/06 02:20:15;;;;;;;4.90;3.08;;;17.30;74.40;;;;;;10335596;28;20389;-53
2023/12/06 02:25:18;;;;;;;4.57;3.08;;;17.30;74.40;;;;;;10336099;28;20053;-54
2023/12/06 02:30:20;;;;;;;4.60;3.08;;;17.30;74.40;;;;;;10340192;28;20164;-53
2023/12/06 02:35:27;;;;;;;6.57;3.20;;;17.30;74.40;;;;;;10342258;28;20041;-56
2023/12/06 02:40:32;;;;;;;6.03;3.22;;;17.30;74.40;;;;;;10341250;28;20899;-55
2023/12/06 02:45:34;;;;;;;4.05;2.80;;;17.30;74.40;;;;;;10337014;28;20050;-56
2023/12/06 02:50:36;;;;;;;5.40;2.95;;;17.30;74.40;;;;;;10339537;28;20053;-51
2023/12/06 02:55:40;;;;;;;9.27;3.70;;;17.30;74.40;;;;;;10337240;28;20050;-52
2023/12/06 03:00:42;;;;;;;11.40;4.43;;;17.30;74.00;;;;;;10338886;28;20058;-52
2023/12/06 03:05:44;;;;;;;8.97;3.50;;;17.10;73.90;;;;;;10337482;28;20113;-53
2023/12/06 03:10:48;;;;;;;6.37;3.33;;;17.00;75.50;;;;;;10338825;28;20058;-55
2023/12/06 03:15:50;;;;;;;6.53;3.25;;;16.90;74.50;;;;;;10338256;28;20457;-50
2023/12/06 03:20:52;;;;;;;8.50;3.70;;;16.80;74.90;;;;;;10334129;28;20057;-51
2023/12/06 03:25:55;;;;;;;5.23;3.13;;;16.70;74.50;;;;;;10336235;28;20130;-55
2023/12/06 03:30:57;;;;;;;7.55;3.33;;;16.80;79.40;;;;;;10336026;28;20069;-53
2023/12/06 03:35:59;;;;;;;8.63;3.40;;;16.70;74.90;;;;;;10334748;28;20057;-54
2023/12/06 03:41:02;;;;;;;8.07;4.15;;;16.70;74.80;;;;;;10334002;28;20069;-52
2023/12/06 03:46:05;;;;;;;6.80;3.08;;;16.50;74.40;;;;;;10324732;28;20773;-54
2023/12/06 03:51:07;;;;;;;;;;;16.50;75.10;;;;;;10334555;28;20184;-52
2023/12/06 03:56:11;;;;;;;8.07;2.75;;;16.50;74.40;;;;;;10334923;28;20704;-53
2023/12/06 04:15:32;;;;;;;7.13;2.55;;;16.40;73.40;;;;;;10577709;27;20672;-50
2023/12/06 04:20:35;;;;;;;5.50;2.95;;;16.50;74.40;;;;;;10591268;27;20050;-54
2023/12/06 04:25:37;;;;;;;5.75;2.85;;;16.60;74.50;;;;;;10595134;27;20046;-49
2023/12/06 04:30:40;;;;;;;3.93;2.33;;;16.70;74.20;;;;;;10590371;27;20047;-53
2023/12/06 04:35:42;;;;;;;5.80;2.75;;;16.80;74.20;;;;;;10596067;27;20059;-50
2023/12/06 04:40:44;;;;;;;7.83;2.50;;;16.70;73.50;;;;;;10595050;27;20055;-53
2023/12/06 04:45:47;;;;;;;4.73;2.30;;;16.80;73.50;;;;;;10592564;27;20054;-55
2023/12/06 04:50:50;;;;;;;4.35;2.40;;;16.90;73.50;;;;;;10598029;27;20556;-54
2023/12/06 04:55:52;;;;;;;4.87;2.40;;;17.10;73.00;;;;;;10604698;27;20406;-56
2023/12/06 05:00:55;;;;;;;3.60;2.05;;;17.30;72.90;;;;;;10597762;27;20051;-50
2023/12/06 05:05:57;;;;;;;3.80;2.80;;;17.60;72.30;;;;;;10591010;27;20043;-55
2023/12/06 05:10:59;;;;;;;2.10;1.60;;;17.80;72.00;;;;;;10596137;27;20058;-57
2023/12/06 05:16:03;;;;;;;6.17;2.40;;;18.00;71.70;;;;;;10592644;27;20487;-62
2023/12/06 05:21:05;;;;;;;2.72;2.10;;;18.10;71.50;;;;;;10594496;27;20366;-53
2023/12/06 05:26:08;;;;;;;5.65;2.35;;;18.20;71.40;;;;;;10567450;27;20466;-51
2023/12/06 05:31:12;;;;;;;3.38;2.00;;;18.30;71.40;;;;;;10562320;27;20039;-53
2023/12/06 05:36:14;;;;;;;7.63;3.08;;;18.30;71.20;;;;;;10560315;27;20063;-52
2023/12/06 05:41:16;;;;;;;3.17;1.92;;;18.30;71.40;;;;;;10562803;27;20082;-54
2023/12/06 05:46:19;;;;;;;2.60;1.60;;;18.30;71.30;;;;;;10561244;27;20055;-53
2023/12/06 05:51:21;;;;;;;3.42;1.70;;;18.40;71.40;;;;;;10570140;27;20058;-52
2023/12/06 05:56:23;;;;;;;6.63;2.67;;;18.40;71.40;;;;;;10576016;27;20047;-54
2023/12/06 06:01:26;;;;;;;3.83;1.77;;;18.40;71.40;;;;;;10576139;27;20503;-55
2023/12/06 06:06:33;;;;;;;3.20;1.83;;;18.40;71.40;;;;;;10560546;27;21099;-55
2023/12/06 06:11:35;;;;;;;1.90;1.58;;;18.40;71.40;;;;;;10570518;27;20073;-53
2023/12/06 06:16:39;;;;;;;2.15;1.65;;;18.30;71.70;;;;;;10567936;27;20391;-51
2023/12/06 06:21:41;;;;;;;2.00;1.52;;;18.30;72.10;;;;;;10564233;27;20117;-52
2023/12/06 06:26:43;;;;;;;1.63;1.23;;;18.30;71.90;;;;;;10571772;27;20067;-54
2023/12/06 06:31:46;;;;;;;5.10;2.00;;;18.30;71.70;;;;;;10561134;27;20058;-53
2023/12/06 06:36:48;;;;;;;2.97;1.65;;;18.30;71.70;;;;;;10555790;27;20043;-52
2023/12/06 06:41:50;;;;;;;5.38;1.40;;;18.30;71.70;;;;;;10558347;27;20062;-55
2023/12/06 06:46:53;;;;;;;1.83;1.35;;;18.30;71.70;;;;;;10558357;27;20748;-54
2023/12/06 06:51:55;;;;;;;1.98;1.38;;;18.40;71.70;;;;;;10550441;27;20451;-56
2023/12/06 06:56:57;;;;;;;3.90;1.38;;;18.30;71.70;;;;;;10559172;27;20059;-57
2023/12/06 07:02:02;;;;;;;4.55;1.35;;;18.30;71.90;;;;;;10559986;27;20056;-53
2023/12/06 07:07:04;;;;;;;3.92;1.73;;;18.30;71.70;;;;;;10544767;27;20091;-55
2023/12/06 07:12:08;;;;;;;4.50;1.25;;;18.40;71.80;;;;;;10559076;27;20880;-53
2023/12/06 07:17:11;;;;;;;4.85;1.70;;;18.30;71.80;;;;;;10553040;27;20060;-53
2023/12/06 07:22:13;;;;;;;2.47;1.40;;;18.30;71.90;;;;;;10557710;27;20040;-50
2023/12/06 07:27:15;;;;;;;1.98;1.25;;;18.30;71.90;;;;;;10557783;27;20154;-50
2023/12/06 07:32:19;;;;;;;4.38;1.80;;;18.30;71.90;;;;;;10555262;27;20057;-55
2023/12/06 07:37:21;;;;;;;2.60;1.60;;;18.30;71.90;;;;;;10553208;27;20142;-51
2023/12/06 07:42:23;;;;;;;1.83;1.25;;;18.30;71.80;;;;;;10567831;27;20047;-54
2023/12/06 07:47:26;;;;;;;2.70;1.73;;;18.30;71.80;;;;;;10553800;27;20159;-53
2023/12/06 07:52:28;;;;;;;5.82;2.15;;;18.30;71.70;;;;;;10558961;27;20046;-55
2023/12/06 07:57:31;;;;;;;7.68;2.83;;;18.30;71.70;;;;;;10550433;27;20047;-55
2023/12/06 08:02:39;;;;;;;3.15;1.55;;;18.30;71.80;;;;;;10548681;27;20043;-55
2023/12/06 08:07:42;;;;;;;5.88;2.20;;;18.20;71.70;;;;;;10551787;27;20051;-51
2023/12/06 08:12:44;;;;;;;5.65;2.55;;;18.20;71.60;;;;;;10553691;28;20598;-53
2023/12/06 08:17:47;;;;;;;2.50;1.80;;;18.20;71.60;;;;;;10550292;28;20054;-50
2023/12/06 08:22:50;;;;;;;4.00;1.92;;;18.20;71.90;;;;;;10552104;28;22681;-59
2023/12/06 08:27:52;;;;;;;8.02;2.40;;;18.20;71.40;;;;;;10562574;28;20048;-54
2023/12/06 08:32:55;;;;;;;5.47;2.47;;;18.10;71.50;;;;;;10556854;27;20048;-55
2023/12/06 08:37:58;;;;;;;11.13;2.47;;;18.00;71.50;;;;;;10555587;28;20048;-51
2023/12/06 08:43:00;;;;;;;3.65;1.65;;;18.00;71.40;;;;;;10550999;28;20047;-54
2023/12/06 08:48:04;;;;;;;3.60;2.10;;;18.00;72.00;;;;;;10555234;28;20043;-52
2023/12/06 08:53:06;;;;;;;4.28;2.20;;;17.90;72.00;;;;;;10552970;28;20162;-54
2023/12/06 08:58:08;;;;;;;3.90;1.73;;;17.90;72.00;;;;;;10555849;27;20090;-54
2023/12/06 09:03:11;;;;;;;4.20;1.88;;;18.00;72.00;;;;;;10556261;27;20629;-50
2023/12/06 09:08:14;;;;;;;3.63;2.10;;;18.00;72.00;;;;;;10558958;27;20874;-54
2023/12/06 09:13:16;;;;;;;3.75;2.30;;;18.00;72.00;;;;;;10560975;27;20058;-54
2023/12/06 09:18:19;;;;;;;4.10;2.53;;;17.90;72.00;;;;;;10557421;27;20685;-53
2023/12/06 09:23:21;;;;;;;4.13;2.42;;;17.90;72.20;;;;;;10557945;27;20055;-51
2023/12/06 09:28:24;;;;;;;4.15;2.33;;;17.80;72.10;;;;;;10566006;27;20059;-51
2023/12/06 09:33:27;;;;;;;3.30;1.52;;;17.80;71.90;;;;;;10556278;27;21431;-54
2023/12/06 09:38:29;;;;;;;8.82;2.70;;;17.80;72.40;;;;;;10560882;27;20043;-52
2023/12/06 09:43:32;;;;;;;7.28;2.72;;;17.80;72.40;;;;;;10553744;27;20062;-51
2023/12/06 09:48:36;;;;;;;3.65;2.05;;;17.70;72.20;;;;;;10555938;27;20130;-53
2023/12/06 09:53:38;;;;;;;4.97;2.33;;;17.70;71.90;;;;;;10557628;27;20074;-52
2023/12/06 09:58:40;;;;;;;3.80;2.30;;;17.60;71.80;;;;;;10559850;27;20074;-52
2023/12/06 10:03:46;;;;;;;2.92;1.60;;;17.60;72.60;;;;;;10560275;27;20545;-53
2023/12/06 10:08:54;;;;;;;4.30;2.35;;;17.70;72.50;;;;;;10555305;27;20062;-56
2023/12/06 10:13:56;;;;;;;4.55;1.88;;;17.60;72.60;;;;;;10551587;27;20124;-53
2023/12/06 10:19:00;;;;;;;3.07;1.90;;;17.70;72.50;;;;;;10551951;27;20054;-54
2023/12/06 10:24:01;;;;;;;3.55;2.10;;;17.70;72.50;;;;;;10556438;27;20532;-55
2023/12/06 10:29:04;;;;;;;2.83;1.90;;;17.70;72.30;;;;;;10557281;27;20422;-50
2023/12/06 10:34:09;;;;;;;3.33;1.85;;;17.70;72.30;;;;;;10556303;27;20116;-52
2023/12/06 10:39:17;;;;;;;3.40;1.45;;;17.70;72.10;;;;;;10561821;27;20047;-50
2023/12/06 10:44:19;;;;;;;2.88;1.60;;;17.70;71.70;;;;;;10555973;27;20047;-54
2023/12/06 10:49:23;;;;;;;2.97;1.48;;;17.60;72.20;;;;;;10561966;27;20146;-53
2023/12/06 10:54:27;;;;;;;3.58;1.60;;;17.60;72.00;;;;;;10559291;27;20058;-53
2023/12/06 10:59:31;;;;;;;8.73;2.20;;;17.60;72.00;;;;;;10555526;27;20047;-55
2023/12/06 11:04:38;;;;;;;2.80;1.52;;;17.50;71.80;;;;;;10554135;27;20084;-53
2023/12/06 11:09:48;;;;;;;4.22;1.40;;;17.60;72.20;;;;;;10550114;27;20071;-51
2023/12/06 11:15:07;;;;;;;6.57;1.67;;;17.50;72.20;;;;;;10552908;27;21077;-59
2023/12/06 11:20:10;;;;;;;9.32;2.15;;;17.50;71.90;;;;;;10550506;27;20047;-56
2023/12/06 11:25:14;;;;;;;2.85;1.38;;;17.60;71.40;;;;;;10556517;27;20050;-57
2023/12/06 11:30:17;;;;;;;6.10;2.75;;;17.50;72.00;;;;;;10556853;27;20216;-55
2023/12/06 11:35:20;;;;;;;3.65;1.77;;;17.50;70.70;;;;;;10555049;27;20766;-52
2023/12/06 11:40:25;;;;;;;3.83;1.52;;;17.50;72.10;;;;;;10564801;27;20058;-54
2023/12/06 11:45:28;;;;;;;6.40;1.80;;;17.60;71.60;;;;;;10555671;27;23164;-52
2023/12/06 11:50:42;;;;;;;6.15;1.65;;;17.50;71.20;;;;;;10548769;27;20128;-52
2023/12/06 11:55:44;;;;;;;3.65;1.45;;;17.50;71.00;;;;;;10553206;27;20877;-53
2023/12/06 12:00:48;;;;;;;2.55;1.30;;;17.50;71.40;;;;;;10549106;27;20061;-54
2023/12/06 12:05:52;;;;;;;4.22;1.48;;;17.50;71.90;;;;;;10555830;27;20054;-51
2023/12/06 12:10:55;;;;;;;4.57;1.48;;;17.40;71.10;;;;;;10550455;28;20100;-52
2023/12/06 12:15:59;;;;;;;4.68;1.63;;;17.40;70.60;;;;;;10553592;28;20105;-53
2023/12/06 12:21:08;;;;;;;4.97;1.40;;;17.40;71.00;;;;;;10552241;28;20544;-52
2023/12/06 12:26:13;;;;;;;3.58;1.73;;;17.40;70.70;;;;;;10555254;28;20047;-52
2023/12/06 12:31:18;;;;;;;7.43;2.00;;;17.40;71.40;;;;;;10555059;28;20060;-52
2023/12/06 12:36:22;;;;;;;9.40;1.58;;;17.30;71.30;;;;;;10565617;27;20902;-52
2023/12/06 12:41:25;;;;;;;2.30;1.20;;;17.20;71.50;;;;;;10561660;27;20047;-54
2023/12/06 12:46:27;;;;;;;3.67;1.67;;;17.30;71.60;;;;;;10562101;27;20058;-51
2023/12/06 12:51:34;;;;;;;7.18;1.70;;;17.40;71.30;;;;;;10558394;27;20078;-56
2023/12/06 12:56:39;;;;;;;5.88;2.10;;;17.40;71.10;;;;;;10563470;27;20046;-56
2023/12/06 13:01:42;;;;;;;17.10;2.20;;;17.30;71.20;;;;;;10561417;27;20054;-51
2023/12/06 13:06:46;;;;;;;7.50;1.58;;;17.30;71.50;;;;;;10563645;27;20174;-55
2023/12/06 13:11:48;;;;;;;4.13;2.03;;;17.40;72.10;;;;;;10559332;27;20056;-52
2023/12/06 13:16:50;;;;;;;5.50;1.57;;;17.40;71.70;;;;;;10556354;27;20196;-51
2023/12/06 13:21:54;;;;;;;1.13;1.02;;;17.40;71.30;;;;;;10561111;27;20562;-51
2023/12/06 13:26:57;;;;;;;2.88;1.20;;;17.40;71.40;;;;;;10559045;27;20055;-56
2023/12/06 13:31:59;;;;;;;1.25;0.90;;;17.50;71.40;;;;;;10553652;27;22214;-53
2023/12/06 13:37:02;;;;;;;3.37;1.17;;;17.50;71.20;;;;;;10557894;27;20074;-51
2023/12/06 13:42:05;;;;;;;1.13;0.95;;;17.60;70.80;;;;;;10563172;27;20051;-54
2023/12/06 13:47:08;;;;;;;3.95;1.08;;;17.70;70.00;;;;;;10560253;27;20035;-53
2023/12/06 13:52:12;;;;;;;1.73;0.90;;;17.90;70.30;;;;;;10557039;27;20062;-52
2023/12/06 13:57:14;;;;;;;3.33;1.17;;;18.20;69.80;;;;;;10555604;27;20082;-52
2023/12/06 14:02:16;;;;;;;1.73;1.00;;;18.40;69.50;;;;;;10561048;27;20062;-53
2023/12/06 14:07:20;;;;;;;1.40;1.08;;;18.50;69.20;;;;;;10558476;27;20063;-52
2023/12/06 14:12:22;;;;;;;4.95;1.95;;;18.70;69.00;;;;;;10552835;27;20054;-53
2023/12/06 14:17:25;;;;;;;2.92;1.00;;;18.80;69.00;;;;;;10547734;27;20047;-55
2023/12/06 14:22:29;;;;;;;2.03;0.98;;;18.90;68.90;;;;;;10555587;27;20043;-56
2023/12/06 14:27:31;;;;;;;1.50;1.13;;;19.00;68.90;;;;;;10553303;27;20075;-52
2023/12/06 14:32:33;;;;;;;3.72;1.30;;;19.00;68.90;;;;;;10563648;27;20113;-53
2023/12/06 14:37:37;;;;;;;2.17;0.85;;;19.00;69.00;;;;;;10551550;27;20107;-54
2023/12/06 14:42:39;;;;;;;2.88;1.00;;;19.00;69.00;;;;;;10553384;27;20131;-53
2023/12/06 14:47:41;;;;;;;2.78;1.58;;;19.00;69.10;;;;;;10555481;27;20402;-56
2023/12/06 14:52:45;;;;;;;1.58;1.00;;;19.00;69.10;;;;;;10555898;27;20071;-52
2023/12/06 14:57:47;;;;;;;5.68;1.17;;;19.00;69.40;;;;;;10547633;27;20047;-57
2023/12/06 15:02:50;;;;;;;2.58;1.00;;;19.00;69.50;;;;;;10554569;27;20062;-58
2023/12/06 15:07:54;;;;;;;2.03;0.88;;;19.00;69.50;;;;;;10551608;27;20054;-57
2023/12/06 15:12:56;;;;;;;2.05;0.85;;;19.00;69.60;;;;;;10557636;27;20063;-55
2023/12/06 15:17:58;;;;;;;4.13;1.05;;;19.00;69.60;;;;;;10552185;27;20047;-53
2023/12/06 15:23:02;;;;;;;;;;;19.00;69.60;;;;;;10555445;27;20561;-53
2023/12/06 15:28:04;;;;;;;2.63;0.90;;;18.90;69.70;;;;;;10556146;27;19936;-54
2023/12/06 15:33:08;;;;;;;2.25;1.42;;;18.90;69.80;;;;;;10556455;27;20047;-55
2023/12/06 15:38:12;;;;;;;4.13;1.10;;;19.00;69.70;;;;;;10551297;27;20073;-57
2023/12/06 15:43:14;;;;;;;1.90;1.05;;;19.00;69.70;;;;;;10561139;27;20062;-54
2023/12/06 15:48:17;;;;;;;1.55;1.38;;;19.00;69.80;;;;;;10558115;27;20226;-53
2023/12/06 15:53:21;;;;;;;1.48;0.98;;;19.00;69.80;;;;;;10561609;27;20051;-55
2023/12/06 15:58:23;;;;;;;2.15;1.02;;;19.00;69.80;;;;;;10557680;27;20059;-53
2023/12/06 16:03:26;;;;;;;2.03;1.20;;;19.00;69.80;;;;;;10559870;27;20040;-54
2023/12/06 16:08:29;;;;;;;4.85;2.03;;;19.00;69.80;;;;;;10558831;27;20643;-52
2023/12/06 16:13:34;;;;;;;1.40;0.98;;;18.90;69.50;;;;;;10557017;27;20476;-55
2023/12/06 16:18:36;;;;;;;3.05;0.90;;;18.90;69.90;;;;;;10548243;28;20067;-54
2023/12/06 16:23:40;;;;;;;1.60;1.08;;;18.90;69.90;;;;;;10559388;27;20116;-56
2023/12/06 16:28:42;;;;;;;1.58;1.10;;;18.90;70.00;;;;;;10557174;28;20051;-57
2023/12/06 16:33:44;;;;;;;6.07;0.93;;;18.90;69.80;;;;;;10555159;28;20103;-51
2023/12/06 16:38:48;;;;;;;2.85;1.05;;;19.00;69.80;;;;;;10560534;28;20923;-50
2023/12/06 16:43:50;;;;;;;1.35;0.93;;;19.00;69.80;;;;;;10564519;28;20861;-55
2023/12/06 16:48:52;;;;;;;1.70;1.10;;;19.00;69.80;;;;;;10560762;27;20462;-52
2023/12/06 16:53:55;;;;;;;1.38;0.90;;;18.90;70.00;;;;;;10565650;28;20043;-51
2023/12/06 16:58:57;;;;;;;1.38;1.00;;;18.90;69.90;;;;;;10553035;28;20142;-54
2023/12/06 17:03:59;;;;;;;4.15;1.55;;;18.80;70.20;;;;;;10557727;28;20069;-55
2023/12/06 17:09:03;;;;;;;3.75;1.20;;;18.80;70.40;;;;;;10548701;28;20058;-54
2023/12/06 17:14:05;;;;;;;2.00;1.10;;;18.70;70.40;;;;;;10547466;28;20055;-53
2023/12/06 17:19:07;;;;;;;2.20;1.10;;;18.70;70.40;;;;;;10549596;27;20764;-53
2023/12/06 17:24:11;;;;;;;8.50;1.48;;;18.70;70.40;;;;;;10555881;27;20137;-54
2023/12/06 17:29:14;;;;;;;2.75;1.27;;;18.70;70.50;;;;;;10556174;27;20150;-53
2023/12/06 17:34:16;;;;;;;2.97;1.08;;;18.60;70.50;;;;;;10561735;27;20051;-56
2023/12/06 17:39:19;;;;;;;2.92;1.35;;;18.70;70.30;;;;;;10555199;27;20708;-55
2023/12/06 17:44:21;;;;;;;3.67;2.22;;;18.80;70.20;;;;;;10559500;27;20052;-56
2023/12/06 17:49:23;;;;;;;1.88;1.15;;;18.80;70.20;;;;;;10564040;27;20043;-53
2023/12/06 17:54:27;;;;;;;3.03;1.40;;;18.80;70.40;;;;;;10559401;27;20082;-55
2023/12/06 17:59:29;;;;;;;3.60;1.20;;;18.80;70.40;;;;;;10554682;27;20731;-56
2023/12/06 18:04:31;;;;;;;3.17;2.03;;;18.80;70.50;;;;;;10521612;27;20067;-56
2023/12/06 18:09:35;;;;;;;4.25;2.10;;;18.70;70.80;;;;;;10550134;27;20120;-54
2023/12/06 18:14:37;;;;;;;5.35;2.78;;;18.60;70.80;;;;;;10563675;27;20066;-53
2023/12/06 18:19:39;;;;;;;7.03;2.58;;;18.60;70.90;;;;;;10558786;27;20047;-51
2023/12/06 18:24:43;;;;;;;5.63;2.67;;;18.50;71.00;;;;;;10568948;27;20383;-56
2023/12/06 18:29:45;;;;;;;7.05;3.22;;;18.50;71.10;;;;;;10560481;27;20055;-55
2023/12/06 18:34:46;;;;;;;5.97;3.15;;;18.50;71.20;;;;;;10563112;27;20040;-55
2023/12/06 18:39:50;;;;;;;7.50;3.90;;;18.50;71.10;;;;;;10568430;27;20062;-55
2023/12/06 18:44:52;;;;;;;7.10;4.00;;;18.40;71.20;;;;;;10568622;27;20047;-53
2023/12/06 18:49:54;;;;;;;7.13;3.33;;;18.40;71.10;;;;;;10562959;27;20053;-51
2023/12/06 18:54:58;;;;;;;5.05;3.20;;;18.50;70.90;;;;;;10567010;27;20468;-52
2023/12/06 19:00:00;;;;;;;5.32;2.85;;;18.50;71.50;;;;;;10555618;27;20047;-52
2023/12/06 19:05:03;;;;;;;4.15;2.40;;;18.80;71.10;;;;;;10564631;27;20058;-55
2023/12/06 19:10:07;;;;;;;3.85;2.72;;;18.90;71.00;;;;;;10565711;27;20047;-52
2023/12/06 19:15:09;;;;;;;4.88;3.17;;;19.00;70.80;;;;;;10563425;27;20043;-56
2023/12/06 19:20:12;;;;;;;6.18;2.65;;;19.00;71.00;;;;;;10555348;27;20152;-56
2023/12/06 19:25:16;;;;;;;7.90;2.90;;;19.10;71.30;;;;;;10558786;27;20062;-54
2023/12/06 19:30:24;;;;;;;6.88;2.35;;;19.10;71.20;;;;;;10558860;27;20144;-56
2023/12/06 19:35:29;;;;;;;6.82;2.65;;;19.20;71.20;;;;;;10566215;27;20154;-54
2023/12/06 19:40:32;;;;;;;5.55;2.75;;;19.20;71.20;;;;;;10561685;27;20062;-54
2023/12/06 19:45:34;;;;;;;4.18;2.40;;;19.10;71.20;;;;;;10562623;27;20048;-56
2023/12/06 19:50:36;;;;;;;3.92;2.70;;;19.10;71.20;;;;;;10553079;27;20861;-55
2023/12/06 19:55:40;;;;;;;4.45;2.53;;;19.10;71.30;;;;;;10554114;27;20052;-55
2023/12/06 20:00:42;;;;;;;4.40;2.67;;;19.10;71.30;;;;;;10544371;27;20597;-54
2023/12/06 20:05:44;;;;;;;4.85;3.15;;;19.00;71.20;;;;;;10555787;27;20146;-56
2023/12/06 20:10:48;;;;;;;8.60;3.72;;;19.00;71.30;;;;;;10552533;28;20056;-56
2023/12/06 20:15:50;;;;;;;7.65;3.58;;;19.00;71.30;;;;;;10550050;28;20521;-56
2023/12/06 20:20:52;;;;;;;5.82;3.40;;;19.00;71.40;;;;;;10562532;28;20039;-54
2023/12/06 20:25:56;;;;;;;5.78;3.20;;;19.00;71.30;;;;;;10564658;28;20039;-56
2023/12/06 20:30:58;;;;;;;10.55;3.83;;;19.00;71.20;;;;;;10553446;27;20043;-53
2023/12/06 20:36:00;;;;;;;;;;;19.00;71.10;;;;;;10554768;27;20059;-55
2023/12/06 20:41:05;;;;;;;6.80;3.83;;;19.00;71.00;;;;;;10538466;28;20037;-55
2023/12/06 20:46:07;;;;;;;8.43;4.20;;;18.90;70.90;;;;;;10555358;28;20055;-58
2023/12/06 20:51:09;;;;;;;10.82;4.65;;;18.90;70.90;;;;;;10558326;27;20059;-55
2023/12/06 20:56:12;;;;;;;8.00;4.32;;;18.90;70.80;;;;;;10565131;27;20050;-56
2023/12/06 21:01:14;;;;;;;11.07;4.63;;;18.80;70.70;;;;;;10562535;27;20839;-54
2023/12/06 21:06:16;;;;;;;7.53;4.10;;;18.80;70.80;;;;;;10555863;27;20565;-54
2023/12/06 21:11:20;;;;;;;8.65;4.30;;;18.70;70.70;;;;;;10563451;27;20536;-53
2023/12/06 21:16:23;;;;;;;8.57;4.13;;;18.70;70.70;;;;;;10551111;27;20413;-50
2023/12/06 21:21:25;;;;;;;6.85;3.90;;;18.70;70.60;;;;;;10560437;27;20047;-52
2023/12/06 21:26:28;;;;;;;11.32;4.32;;;18.60;70.70;;;;;;10565606;27;20120;-55
2023/12/06 21:31:30;;;;;;;7.35;3.78;;;18.60;70.70;;;;;;10564989;27;20043;-55
2023/12/06 21:36:32;;;;;;;9.60;4.20;;;18.50;70.70;;;;;;10571404;27;20854;-53
2023/12/06 21:41:36;;;;;;;7.80;3.85;;;18.50;70.60;;;;;;10561930;27;20056;-52
2023/12/06 21:46:38;;;;;;;6.78;4.35;;;18.50;70.60;;;;;;10563196;27;20528;-54
2023/12/06 21:51:40;;;;;;;9.90;5.05;;;18.40;70.70;;;;;;10562652;27;20324;-54
2023/12/06 21:56:43;;;;;;;10.20;5.13;;;18.40;70.80;;;;;;10562510;27;20085;-51
2023/12/06 22:01:45;;;;;;;9.88;5.40;;;18.30;70.80;;;;;;10563511;27;20813;-53
2023/12/06 22:06:47;;;;;;;8.98;4.82;;;18.30;70.90;;;;;;10564975;27;20047;-55
2023/12/06 22:11:50;;;;;;;8.88;5.40;;;18.20;70.90;;;;;;10560218;27;20051;-52
2023/12/06 22:16:52;;;;;;;11.32;5.88;;;18.20;70.90;;;;;;10554124;27;20039;-55
2023/12/06 22:21:55;;;;;;;12.35;6.15;;;18.20;71.00;;;;;;10562488;27;20063;-53
2023/12/06 22:26:58;;;;;;;10.77;5.57;;;18.20;71.60;;;;;;10555849;27;20050;-57
2023/12/06 22:32:00;;;;;;;10.48;5.68;;;18.10;71.00;;;;;;10561540;27;20069;-55
2023/12/06 22:37:03;;;;;;;9.70;5.45;;;18.10;71.10;;;;;;10557723;27;20541;-56
2023/12/06 22:42:07;;;;;;;13.55;5.72;;;18.00;71.20;;;;;;10564934;27;20043;-53
2023/12/06 22:47:09;;;;;;;9.35;5.40;;;18.00;71.20;;;;;;10544984;27;20824;-57
2023/12/06 22:52:11;;;;;;;9.18;5.07;;;18.00;71.30;;;;;;10566292;27;20811;-54
2023/12/06 22:57:15;;;;;;;11.27;5.57;;;17.90;71.20;;;;;;10562764;27;20713;-56
2023/12/06 23:02:17;;;;;;;9.75;5.75;;;17.90;71.30;;;;;;10564394;27;20479;-56
2023/12/06 23:07:19;;;;;;;13.85;5.75;;;17.90;71.30;;;;;;10556274;27;20746;-55
2023/12/06 23:12:23;;;;;;;11.40;5.50;;;17.80;71.20;;;;;;10558206;27;20055;-57
2023/12/06 23:17:25;;;;;;;10.00;4.97;;;17.80;71.30;;;;;;10562042;27;20047;-55
2023/12/06 23:22:27;;;;;;;11.18;5.38;;;17.80;71.30;;;;;;10571500;27;20154;-54
2023/12/06 23:27:30;;;;;;;10.07;5.72;;;17.80;71.30;;;;;;10567945;27;20047;-56
2023/12/06 23:32:32;;;;;;;9.73;5.30;;;17.70;71.20;;;;;;10561091;27;20082;-55
2023/12/06 23:37:34;;;;;;;10.68;5.05;;;17.70;71.20;;;;;;10570780;27;20059;-53
2023/12/06 23:42:38;;;;;;;9.55;5.22;;;17.70;71.20;;;;;;10561040;27;20047;-58
2023/12/06 23:47:39;;;;;;;11.82;5.15;;;17.70;71.30;;;;;;10561823;27;20043;-54
2023/12/06 23:52:41;;;;;;;10.37;5.17;;;17.70;71.30;;;;;;10563508;27;20054;-54
2023/12/06 23:57:45;;;;;;;8.65;5.47;;;17.60;71.30;;;;;;10567275;27;20480;-52
